sensor_id;sensor_type;location;lat;lon;timestamp;P1;durP1;ratioP1;P2;durP2;ratioP2
23252;SDS011;11795;47.054;15.408;2023-07-24T00:00:00;7.8;;;7.0;;
23252;SDS011;11795;47.054;15.408;2023-07-24T00:02:00;8.1;;;6.6;;
23252;SDS011;11795;47.054;15.408;2023-07-24T00:04:00;8.1;;;6.6;;
23252;SDS011;11795;47.054;15.408;2023-07-24T00:06:01;8.1;;;6.6;;
23252;SDS011;11795;47.054;15.408;2023-07-24T00:08:00;7.8;;;6.5;;
23252;SDS011;11795;47.054;15.408;2023-07-24T00:10:00;7.8;;;6.5;;
23252;SDS011;11795;47.054;15.408;2023-07-24T00:12:00;7.0;;;6.3;;
23252;SDS011;11795;47.054;15.408;2023-07-24T00:14:00;7.0;;;6.3;;
23252;SDS011;11795;47.054;15.408;2023-07-24T00:16:00;7.0;;;6.3;;
23252;SDS011;11795;47.054;15.408;2023-07-24T00:18:00;7.6;;;6.8;;
23252;SDS011;11795;47.054;15.408;2023-07-24T00:20:00;7.6;;;6.8;;
23252;SDS011;11795;47.054;15.408;2023-07-24T00:22:00;8.2;;;6.7;;
23252;SDS011;11795;47.054;15.408;2023-07-24T00:24:00;8.2;;;6.7;;
23252;SDS011;11795;47.054;15.408;2023-07-24T00:26:00;8.2;;;6.7;;
23252;SDS011;11795;47.054;15.408;2023-07-24T00:28:00;7.4;;;6.4;;
23252;SDS011;11795;47.054;15.408;2023-07-24T00:30:00;7.4;;;6.4;;
23252;SDS011;11795;47.054;15.408;2023-07-24T00:32:00;7.5;;;6.7;;
23252;SDS011;11795;47.054;15.408;2023-07-24T00:34:00;7.5;;;6.7;;
23252;SDS011;11795;47.054;15.408;2023-07-24T00:36:00;7.5;;;6.7;;
23252;SDS011;11795;47.054;15.408;2023-07-24T00:38:00;8.0;;;7.2;;
23252;SDS011;11795;47.054;15.408;2023-07-24T00:40:00;8.0;;;7.2;;
23252;SDS011;11795;47.054;15.408;2023-07-24T00:42:01;7.4;;;6.2;;
23252;SDS011;11795;47.054;15.408;2023-07-24T00:44:00;7.4;;;6.2;;
23252;SDS011;11795;47.054;15.408;2023-07-24T00:46:00;7.4;;;6.2;;
23252;SDS011;11795;47.054;15.408;2023-07-24T00:48:00;7.9;;;6.6;;
23252;SDS011;11795;47.054;15.408;2023-07-24T00:50:00;7.9;;;6.6;;
23252;SDS011;11795;47.054;15.408;2023-07-24T00:52:00;7.7;;;6.3;;
23252;SDS011;11795;47.054;15.408;2023-07-24T00:54:01;7.7;;;6.3;;
23252;SDS011;11795;47.054;15.408;2023-07-24T00:56:00;7.7;;;6.3;;
23252;SDS011;11795;47.054;15.408;2023-07-24T00:58:00;8.1;;;6.2;;
23252;SDS011;11795;47.054;15.408;2023-07-24T01:00:00;8.1;;;6.2;;
23252;SDS011;11795;47.054;15.408;2023-07-24T01:02:00;7.5;;;6.5;;
23252;SDS011;11795;47.054;15.408;2023-07-24T01:04:00;7.5;;;6.5;;
23252;SDS011;11795;47.054;15.408;2023-07-24T01:06:00;7.5;;;6.5;;
23252;SDS011;11795;47.054;15.408;2023-07-24T01:08:00;7.1;;;6.4;;
23252;SDS011;11795;47.054;15.408;2023-07-24T01:10:00;7.1;;;6.4;;
23252;SDS011;11795;47.054;15.408;2023-07-24T01:12:01;7.6;;;6.8;;
23252;SDS011;11795;47.054;15.408;2023-07-24T01:14:02;7.6;;;6.8;;
23252;SDS011;11795;47.054;15.408;2023-07-24T01:16:01;7.6;;;6.8;;
23252;SDS011;11795;47.054;15.408;2023-07-24T01:18:01;7.2;;;6.2;;
23252;SDS011;11795;47.054;15.408;2023-07-24T01:20:00;7.2;;;6.2;;
23252;SDS011;11795;47.054;15.408;2023-07-24T01:22:01;7.1;;;6.4;;
23252;SDS011;11795;47.054;15.408;2023-07-24T01:26:01;7.1;;;6.4;;
23252;SDS011;11795;47.054;15.408;2023-07-24T01:28:00;12.1;;;10.9;;
23252;SDS011;11795;47.054;15.408;2023-07-24T01:30:00;12.1;;;10.9;;
23252;SDS011;11795;47.054;15.408;2023-07-24T01:32:00;13.4;;;12.1;;
23252;SDS011;11795;47.054;15.408;2023-07-24T01:34:00;13.4;;;12.1;;
23252;SDS011;11795;47.054;15.408;2023-07-24T01:36:01;13.4;;;12.1;;
23252;SDS011;11795;47.054;15.408;2023-07-24T01:38:00;9.4;;;8.4;;
23252;SDS011;11795;47.054;15.408;2023-07-24T01:40:00;9.4;;;8.4;;
23252;SDS011;11795;47.054;15.408;2023-07-24T01:42:00;8.9;;;7.6;;
23252;SDS011;11795;47.054;15.408;2023-07-24T01:44:00;8.9;;;7.6;;
23252;SDS011;11795;47.054;15.408;2023-07-24T01:46:00;8.9;;;7.6;;
23252;SDS011;11795;47.054;15.408;2023-07-24T01:48:00;8.1;;;7.3;;
23252;SDS011;11795;47.054;15.408;2023-07-24T01:50:00;8.1;;;7.3;;
23252;SDS011;11795;47.054;15.408;2023-07-24T01:52:00;7.0;;;6.3;;
23252;SDS011;11795;47.054;15.408;2023-07-24T01:54:00;7.0;;;6.3;;
23252;SDS011;11795;47.054;15.408;2023-07-24T01:56:00;7.0;;;6.3;;
23252;SDS011;11795;47.054;15.408;2023-07-24T01:58:00;9.2;;;7.0;;
23252;SDS011;11795;47.054;15.408;2023-07-24T02:00:00;9.2;;;7.0;;
23252;SDS011;11795;47.054;15.408;2023-07-24T02:02:00;7.1;;;6.4;;
23252;SDS011;11795;47.054;15.408;2023-07-24T02:04:00;7.1;;;6.4;;
23252;SDS011;11795;47.054;15.408;2023-07-24T02:06:00;7.1;;;6.4;;
23252;SDS011;11795;47.054;15.408;2023-07-24T02:08:00;7.8;;;6.7;;
23252;SDS011;11795;47.054;15.408;2023-07-24T02:10:00;7.8;;;6.7;;
23252;SDS011;11795;47.054;15.408;2023-07-24T02:12:02;7.5;;;6.7;;
23252;SDS011;11795;47.054;15.408;2023-07-24T02:14:00;7.5;;;6.7;;
23252;SDS011;11795;47.054;15.408;2023-07-24T02:16:00;7.5;;;6.7;;
23252;SDS011;11795;47.054;15.408;2023-07-24T02:18:00;10.4;;;9.3;;
23252;SDS011;11795;47.054;15.408;2023-07-24T02:20:00;10.4;;;9.3;;
23252;SDS011;11795;47.054;15.408;2023-07-24T02:22:00;11.4;;;10.2;;
23252;SDS011;11795;47.054;15.408;2023-07-24T02:24:00;11.4;;;10.2;;
23252;SDS011;11795;47.054;15.408;2023-07-24T02:26:00;11.4;;;10.2;;
23252;SDS011;11795;47.054;15.408;2023-07-24T02:28:00;11.8;;;10.6;;
23252;SDS011;11795;47.054;15.408;2023-07-24T02:30:00;11.8;;;10.6;;
23252;SDS011;11795;47.054;15.408;2023-07-24T02:32:00;10.8;;;9.7;;
23252;SDS011;11795;47.054;15.408;2023-07-24T02:34:00;10.8;;;9.7;;
23252;SDS011;11795;47.054;15.408;2023-07-24T02:36:00;10.8;;;9.7;;
23252;SDS011;11795;47.054;15.408;2023-07-24T02:38:00;10.2;;;9.0;;
23252;SDS011;11795;47.054;15.408;2023-07-24T02:40:00;10.2;;;9.0;;
23252;SDS011;11795;47.054;15.408;2023-07-24T02:42:00;9.5;;;8.5;;
23252;SDS011;11795;47.054;15.408;2023-07-24T02:44:01;9.5;;;8.5;;
23252;SDS011;11795;47.054;15.408;2023-07-24T02:46:01;9.5;;;8.5;;
23252;SDS011;11795;47.054;15.408;2023-07-24T02:48:02;8.5;;;7.4;;
23252;SDS011;11795;47.054;15.408;2023-07-24T02:50:00;8.5;;;7.4;;
23252;SDS011;11795;47.054;15.408;2023-07-24T02:52:00;8.5;;;7.4;;
23252;SDS011;11795;47.054;15.408;2023-07-24T02:54:00;7.7;;;6.6;;
23252;SDS011;11795;47.054;15.408;2023-07-24T02:56:00;7.7;;;6.6;;
23252;SDS011;11795;47.054;15.408;2023-07-24T02:58:00;8.3;;;7.5;;
23252;SDS011;11795;47.054;15.408;2023-07-24T03:00:00;8.3;;;7.5;;
23252;SDS011;11795;47.054;15.408;2023-07-24T03:02:01;8.3;;;7.5;;
23252;SDS011;11795;47.054;15.408;2023-07-24T03:04:00;9.5;;;7.6;;
23252;SDS011;11795;47.054;15.408;2023-07-24T03:06:01;9.5;;;7.6;;
23252;SDS011;11795;47.054;15.408;2023-07-24T03:08:00;8.8;;;7.3;;
23252;SDS011;11795;47.054;15.408;2023-07-24T03:10:00;8.8;;;7.3;;
23252;SDS011;11795;47.054;15.408;2023-07-24T03:12:00;8.8;;;7.3;;
23252;SDS011;11795;47.054;15.408;2023-07-24T03:14:00;8.6;;;7.7;;
23252;SDS011;11795;47.054;15.408;2023-07-24T03:16:00;8.6;;;7.7;;
23252;SDS011;11795;47.054;15.408;2023-07-24T03:18:00;9.7;;;7.4;;
23252;SDS011;11795;47.054;15.408;2023-07-24T03:20:07;9.7;;;7.4;;
23252;SDS011;11795;47.054;15.408;2023-07-24T03:22:00;9.7;;;7.4;;
23252;SDS011;11795;47.054;15.408;2023-07-24T03:24:00;8.1;;;7.3;;
23252;SDS011;11795;47.054;15.408;2023-07-24T03:26:00;8.1;;;7.3;;
23252;SDS011;11795;47.054;15.408;2023-07-24T03:28:00;8.7;;;7.8;;
23252;SDS011;11795;47.054;15.408;2023-07-24T03:30:00;8.7;;;7.8;;
23252;SDS011;11795;47.054;15.408;2023-07-24T03:32:00;8.7;;;7.8;;
23252;SDS011;11795;47.054;15.408;2023-07-24T03:34:00;10.9;;;7.6;;
23252;SDS011;11795;47.054;15.408;2023-07-24T03:36:00;10.9;;;7.6;;
23252;SDS011;11795;47.054;15.408;2023-07-24T03:38:00;7.9;;;7.1;;
23252;SDS011;11795;47.054;15.408;2023-07-24T03:40:00;7.9;;;7.1;;
23252;SDS011;11795;47.054;15.408;2023-07-24T03:42:00;7.9;;;7.1;;
23252;SDS011;11795;47.054;15.408;2023-07-24T03:44:00;8.2;;;7.3;;
23252;SDS011;11795;47.054;15.408;2023-07-24T03:46:00;8.2;;;7.3;;
23252;SDS011;11795;47.054;15.408;2023-07-24T03:48:00;9.3;;;8.0;;
23252;SDS011;11795;47.054;15.408;2023-07-24T03:50:00;9.3;;;8.0;;
23252;SDS011;11795;47.054;15.408;2023-07-24T03:52:00;9.3;;;8.0;;
23252;SDS011;11795;47.054;15.408;2023-07-24T03:54:00;9.6;;;8.6;;
23252;SDS011;11795;47.054;15.408;2023-07-24T03:56:00;9.6;;;8.6;;
23252;SDS011;11795;47.054;15.408;2023-07-24T03:58:00;10.0;;;7.8;;
23252;SDS011;11795;47.054;15.408;2023-07-24T04:00:00;10.0;;;7.8;;
23252;SDS011;11795;47.054;15.408;2023-07-24T04:02:02;10.0;;;7.8;;
23252;SDS011;11795;47.054;15.408;2023-07-24T04:04:00;9.8;;;8.3;;
23252;SDS011;11795;47.054;15.408;2023-07-24T04:06:00;9.8;;;8.3;;
23252;SDS011;11795;47.054;15.408;2023-07-24T04:08:00;9.8;;;8.8;;
23252;SDS011;11795;47.054;15.408;2023-07-24T04:10:00;9.8;;;8.8;;
23252;SDS011;11795;47.054;15.408;2023-07-24T04:12:00;9.8;;;8.8;;
23252;SDS011;11795;47.054;15.408;2023-07-24T04:14:00;11.2;;;8.9;;
23252;SDS011;11795;47.054;15.408;2023-07-24T04:16:00;11.2;;;8.9;;
23252;SDS011;11795;47.054;15.408;2023-07-24T04:18:00;9.8;;;8.8;;
23252;SDS011;11795;47.054;15.408;2023-07-24T04:20:00;9.8;;;8.8;;
23252;SDS011;11795;47.054;15.408;2023-07-24T04:22:00;9.8;;;8.8;;
23252;SDS011;11795;47.054;15.408;2023-07-24T04:24:00;13.7;;;10.4;;
23252;SDS011;11795;47.054;15.408;2023-07-24T04:26:00;13.7;;;10.4;;
23252;SDS011;11795;47.054;15.408;2023-07-24T04:28:00;11.1;;;9.6;;
23252;SDS011;11795;47.054;15.408;2023-07-24T04:30:00;11.1;;;9.6;;
23252;SDS011;11795;47.054;15.408;2023-07-24T04:32:00;11.1;;;9.6;;
23252;SDS011;11795;47.054;15.408;2023-07-24T04:34:00;12.0;;;9.5;;
23252;SDS011;11795;47.054;15.408;2023-07-24T04:36:00;12.0;;;9.5;;
23252;SDS011;11795;47.054;15.408;2023-07-24T04:38:00;10.0;;;8.5;;
23252;SDS011;11795;47.054;15.408;2023-07-24T04:40:00;10.0;;;8.5;;
23252;SDS011;11795;47.054;15.408;2023-07-24T04:42:00;10.0;;;8.5;;
23252;SDS011;11795;47.054;15.408;2023-07-24T04:44:00;13.0;;;9.5;;
23252;SDS011;11795;47.054;15.408;2023-07-24T04:46:00;13.0;;;9.5;;
23252;SDS011;11795;47.054;15.408;2023-07-24T04:48:00;10.9;;;8.6;;
23252;SDS011;11795;47.054;15.408;2023-07-24T04:50:00;10.9;;;8.6;;
23252;SDS011;11795;47.054;15.408;2023-07-24T04:52:00;10.9;;;8.6;;
23252;SDS011;11795;47.054;15.408;2023-07-24T04:54:00;9.4;;;8.4;;
23252;SDS011;11795;47.054;15.408;2023-07-24T04:56:00;9.4;;;8.4;;
23252;SDS011;11795;47.054;15.408;2023-07-24T04:58:00;9.0;;;8.0;;
23252;SDS011;11795;47.054;15.408;2023-07-24T05:00:00;9.0;;;8.0;;
23252;SDS011;11795;47.054;15.408;2023-07-24T05:02:00;9.0;;;8.0;;
23252;SDS011;11795;47.054;15.408;2023-07-24T05:04:00;12.7;;;8.5;;
23252;SDS011;11795;47.054;15.408;2023-07-24T05:06:00;12.7;;;8.5;;
23252;SDS011;11795;47.054;15.408;2023-07-24T05:08:00;8.9;;;8.0;;
23252;SDS011;11795;47.054;15.408;2023-07-24T05:10:00;8.9;;;8.0;;
23252;SDS011;11795;47.054;15.408;2023-07-24T05:12:00;8.9;;;8.0;;
23252;SDS011;11795;47.054;15.408;2023-07-24T05:14:00;9.7;;;8.0;;
23252;SDS011;11795;47.054;15.408;2023-07-24T05:16:00;9.7;;;8.0;;
23252;SDS011;11795;47.054;15.408;2023-07-24T05:18:01;9.1;;;8.2;;
23252;SDS011;11795;47.054;15.408;2023-07-24T05:20:00;9.1;;;8.2;;
23252;SDS011;11795;47.054;15.408;2023-07-24T05:22:00;9.1;;;8.2;;
23252;SDS011;11795;47.054;15.408;2023-07-24T05:24:00;11.5;;;8.9;;
23252;SDS011;11795;47.054;15.408;2023-07-24T05:26:01;11.5;;;8.9;;
23252;SDS011;11795;47.054;15.408;2023-07-24T05:28:00;8.7;;;7.4;;
23252;SDS011;11795;47.054;15.408;2023-07-24T05:30:00;8.7;;;7.4;;
23252;SDS011;11795;47.054;15.408;2023-07-24T05:32:00;8.7;;;7.4;;
23252;SDS011;11795;47.054;15.408;2023-07-24T05:34:00;8.5;;;7.4;;
23252;SDS011;11795;47.054;15.408;2023-07-24T05:36:00;8.5;;;7.4;;
23252;SDS011;11795;47.054;15.408;2023-07-24T05:38:00;8.1;;;7.3;;
23252;SDS011;11795;47.054;15.408;2023-07-24T05:40:00;8.1;;;7.3;;
23252;SDS011;11795;47.054;15.408;2023-07-24T05:42:00;8.1;;;7.3;;
23252;SDS011;11795;47.054;15.408;2023-07-24T05:44:00;8.0;;;7.2;;
23252;SDS011;11795;47.054;15.408;2023-07-24T05:46:00;8.0;;;7.2;;
23252;SDS011;11795;47.054;15.408;2023-07-24T05:48:00;9.7;;;7.7;;
23252;SDS011;11795;47.054;15.408;2023-07-24T05:50:00;9.7;;;7.7;;
23252;SDS011;11795;47.054;15.408;2023-07-24T05:52:00;9.7;;;7.7;;
23252;SDS011;11795;47.054;15.408;2023-07-24T05:54:00;7.8;;;6.9;;
23252;SDS011;11795;47.054;15.408;2023-07-24T05:56:01;7.8;;;6.9;;
23252;SDS011;11795;47.054;15.408;2023-07-24T05:58:00;8.0;;;7.2;;
23252;SDS011;11795;47.054;15.408;2023-07-24T06:00:00;8.0;;;7.2;;
23252;SDS011;11795;47.054;15.408;2023-07-24T06:02:00;8.0;;;7.2;;
23252;SDS011;11795;47.054;15.408;2023-07-24T06:04:00;7.8;;;7.0;;
23252;SDS011;11795;47.054;15.408;2023-07-24T06:06:02;7.8;;;7.0;;
23252;SDS011;11795;47.054;15.408;2023-07-24T06:08:00;8.7;;;7.1;;
23252;SDS011;11795;47.054;15.408;2023-07-24T06:10:00;8.7;;;7.1;;
23252;SDS011;11795;47.054;15.408;2023-07-24T06:12:00;8.7;;;7.1;;
23252;SDS011;11795;47.054;15.408;2023-07-24T06:14:00;9.2;;;7.3;;
23252;SDS011;11795;47.054;15.408;2023-07-24T06:16:00;9.2;;;7.3;;
23252;SDS011;11795;47.054;15.408;2023-07-24T06:18:00;9.2;;;7.5;;
23252;SDS011;11795;47.054;15.408;2023-07-24T06:20:00;9.2;;;7.5;;
23252;SDS011;11795;47.054;15.408;2023-07-24T06:22:00;9.2;;;7.5;;
23252;SDS011;11795;47.054;15.408;2023-07-24T06:24:00;7.9;;;7.1;;
23252;SDS011;11795;47.054;15.408;2023-07-24T06:26:00;7.9;;;7.1;;
23252;SDS011;11795;47.054;15.408;2023-07-24T06:28:00;9.4;;;7.2;;
23252;SDS011;11795;47.054;15.408;2023-07-24T06:30:00;9.4;;;7.2;;
23252;SDS011;11795;47.054;15.408;2023-07-24T06:32:00;9.4;;;7.2;;
23252;SDS011;11795;47.054;15.408;2023-07-24T06:34:00;9.1;;;7.7;;
23252;SDS011;11795;47.054;15.408;2023-07-24T06:36:00;9.1;;;7.7;;
23252;SDS011;11795;47.054;15.408;2023-07-24T06:38:00;9.1;;;8.1;;
23252;SDS011;11795;47.054;15.408;2023-07-24T06:40:00;9.1;;;8.1;;
23252;SDS011;11795;47.054;15.408;2023-07-24T06:42:00;9.1;;;8.1;;
23252;SDS011;11795;47.054;15.408;2023-07-24T06:44:00;9.7;;;8.0;;
23252;SDS011;11795;47.054;15.408;2023-07-24T06:46:00;9.7;;;8.0;;
23252;SDS011;11795;47.054;15.408;2023-07-24T06:48:00;10.7;;;8.3;;
23252;SDS011;11795;47.054;15.408;2023-07-24T06:50:00;10.7;;;8.3;;
23252;SDS011;11795;47.054;15.408;2023-07-24T06:52:00;10.7;;;8.3;;
23252;SDS011;11795;47.054;15.408;2023-07-24T06:54:00;9.4;;;7.6;;
23252;SDS011;11795;47.054;15.408;2023-07-24T06:56:00;9.4;;;7.6;;
23252;SDS011;11795;47.054;15.408;2023-07-24T06:58:00;9.4;;;7.6;;
23252;SDS011;11795;47.054;15.408;2023-07-24T07:00:00;10.2;;;7.5;;
23252;SDS011;11795;47.054;15.408;2023-07-24T07:02:00;10.2;;;7.5;;
23252;SDS011;11795;47.054;15.408;2023-07-24T07:04:00;9.7;;;7.7;;
23252;SDS011;11795;47.054;15.408;2023-07-24T07:06:00;9.7;;;7.7;;
23252;SDS011;11795;47.054;15.408;2023-07-24T07:08:00;9.7;;;7.7;;
23252;SDS011;11795;47.054;15.408;2023-07-24T07:10:00;8.9;;;7.6;;
23252;SDS011;11795;47.054;15.408;2023-07-24T07:12:00;8.9;;;7.6;;
23252;SDS011;11795;47.054;15.408;2023-07-24T07:14:00;8.3;;;7.2;;
23252;SDS011;11795;47.054;15.408;2023-07-24T07:16:00;8.3;;;7.2;;
23252;SDS011;11795;47.054;15.408;2023-07-24T07:18:00;8.3;;;7.2;;
23252;SDS011;11795;47.054;15.408;2023-07-24T07:20:00;8.4;;;7.1;;
23252;SDS011;11795;47.054;15.408;2023-07-24T07:22:00;8.4;;;7.1;;
23252;SDS011;11795;47.054;15.408;2023-07-24T07:24:00;8.1;;;7.2;;
23252;SDS011;11795;47.054;15.408;2023-07-24T07:26:00;8.1;;;7.2;;
23252;SDS011;11795;47.054;15.408;2023-07-24T07:28:00;8.1;;;7.2;;
23252;SDS011;11795;47.054;15.408;2023-07-24T07:30:00;9.6;;;7.7;;
23252;SDS011;11795;47.054;15.408;2023-07-24T07:32:00;9.6;;;7.7;;
23252;SDS011;11795;47.054;15.408;2023-07-24T07:34:00;10.0;;;8.0;;
23252;SDS011;11795;47.054;15.408;2023-07-24T07:36:00;10.0;;;8.0;;
23252;SDS011;11795;47.054;15.408;2023-07-24T07:38:00;10.0;;;8.0;;
23252;SDS011;11795;47.054;15.408;2023-07-24T07:40:00;9.7;;;7.8;;
23252;SDS011;11795;47.054;15.408;2023-07-24T07:42:00;9.7;;;7.8;;
23252;SDS011;11795;47.054;15.408;2023-07-24T07:44:00;11.4;;;7.9;;
23252;SDS011;11795;47.054;15.408;2023-07-24T07:46:00;11.4;;;7.9;;
23252;SDS011;11795;47.054;15.408;2023-07-24T07:48:00;11.4;;;7.9;;
23252;SDS011;11795;47.054;15.408;2023-07-24T07:50:00;10.5;;;8.1;;
23252;SDS011;11795;47.054;15.408;2023-07-24T07:52:00;10.5;;;8.1;;
23252;SDS011;11795;47.054;15.408;2023-07-24T07:54:00;10.4;;;8.1;;
23252;SDS011;11795;47.054;15.408;2023-07-24T07:56:00;10.4;;;8.1;;
23252;SDS011;11795;47.054;15.408;2023-07-24T07:58:00;10.4;;;8.1;;
23252;SDS011;11795;47.054;15.408;2023-07-24T08:00:00;12.3;;;8.3;;
23252;SDS011;11795;47.054;15.408;2023-07-24T08:02:00;12.3;;;8.3;;
23252;SDS011;11795;47.054;15.408;2023-07-24T08:04:00;8.6;;;7.7;;
23252;SDS011;11795;47.054;15.408;2023-07-24T08:06:00;8.6;;;7.7;;
23252;SDS011;11795;47.054;15.408;2023-07-24T08:08:00;8.6;;;7.7;;
23252;SDS011;11795;47.054;15.408;2023-07-24T08:10:00;9.3;;;7.8;;
23252;SDS011;11795;47.054;15.408;2023-07-24T08:12:00;9.3;;;7.8;;
23252;SDS011;11795;47.054;15.408;2023-07-24T08:14:00;8.6;;;7.8;;
23252;SDS011;11795;47.054;15.408;2023-07-24T08:16:03;8.6;;;7.8;;
23252;SDS011;11795;47.054;15.408;2023-07-24T08:18:00;8.6;;;7.8;;
23252;SDS011;11795;47.054;15.408;2023-07-24T08:20:00;9.4;;;7.5;;
23252;SDS011;11795;47.054;15.408;2023-07-24T08:22:00;9.4;;;7.5;;
23252;SDS011;11795;47.054;15.408;2023-07-24T08:24:02;9.3;;;7.7;;
23252;SDS011;11795;47.054;15.408;2023-07-24T08:26:02;9.3;;;7.7;;
23252;SDS011;11795;47.054;15.408;2023-07-24T08:28:00;9.3;;;7.7;;
23252;SDS011;11795;47.054;15.408;2023-07-24T08:30:00;9.9;;;8.1;;
23252;SDS011;11795;47.054;15.408;2023-07-24T08:32:00;9.9;;;8.1;;
23252;SDS011;11795;47.054;15.408;2023-07-24T08:34:00;8.7;;;7.5;;
23252;SDS011;11795;47.054;15.408;2023-07-24T08:36:01;8.7;;;7.5;;
23252;SDS011;11795;47.054;15.408;2023-07-24T08:38:00;8.7;;;7.5;;
23252;SDS011;11795;47.054;15.408;2023-07-24T08:40:00;9.6;;;8.0;;
23252;SDS011;11795;47.054;15.408;2023-07-24T08:42:07;9.6;;;8.0;;
23252;SDS011;11795;47.054;15.408;2023-07-24T08:44:00;8.9;;;7.8;;
23252;SDS011;11795;47.054;15.408;2023-07-24T08:46:00;8.9;;;7.8;;
23252;SDS011;11795;47.054;15.408;2023-07-24T08:48:00;8.9;;;7.8;;
23252;SDS011;11795;47.054;15.408;2023-07-24T08:50:00;10.6;;;7.5;;
23252;SDS011;11795;47.054;15.408;2023-07-24T08:52:00;10.6;;;7.5;;
23252;SDS011;11795;47.054;15.408;2023-07-24T08:54:00;10.3;;;7.7;;
23252;SDS011;11795;47.054;15.408;2023-07-24T08:56:00;10.3;;;7.7;;
23252;SDS011;11795;47.054;15.408;2023-07-24T08:58:00;10.3;;;7.7;;
23252;SDS011;11795;47.054;15.408;2023-07-24T09:00:04;10.4;;;7.7;;
23252;SDS011;11795;47.054;15.408;2023-07-24T09:02:00;10.4;;;7.7;;
23252;SDS011;11795;47.054;15.408;2023-07-24T09:04:00;8.9;;;7.6;;
23252;SDS011;11795;47.054;15.408;2023-07-24T09:06:01;8.9;;;7.6;;
23252;SDS011;11795;47.054;15.408;2023-07-24T09:08:00;8.9;;;7.6;;
23252;SDS011;11795;47.054;15.408;2023-07-24T09:10:00;10.3;;;7.8;;
23252;SDS011;11795;47.054;15.408;2023-07-24T09:12:01;10.3;;;7.8;;
23252;SDS011;11795;47.054;15.408;2023-07-24T09:14:00;9.6;;;7.9;;
23252;SDS011;11795;47.054;15.408;2023-07-24T09:16:00;9.6;;;7.9;;
23252;SDS011;11795;47.054;15.408;2023-07-24T09:18:00;9.6;;;7.9;;
23252;SDS011;11795;47.054;15.408;2023-07-24T09:20:02;8.6;;;7.6;;
23252;SDS011;11795;47.054;15.408;2023-07-24T09:22:08;8.6;;;7.6;;
23252;SDS011;11795;47.054;15.408;2023-07-24T09:24:08;9.9;;;7.7;;
23252;SDS011;11795;47.054;15.408;2023-07-24T09:26:04;9.9;;;7.7;;
23252;SDS011;11795;47.054;15.408;2023-07-24T09:28:00;9.9;;;7.7;;
23252;SDS011;11795;47.054;15.408;2023-07-24T09:30:00;9.1;;;8.1;;
23252;SDS011;11795;47.054;15.408;2023-07-24T09:32:00;9.1;;;8.1;;
23252;SDS011;11795;47.054;15.408;2023-07-24T09:34:00;10.3;;;8.1;;
23252;SDS011;11795;47.054;15.408;2023-07-24T09:36:00;10.3;;;8.1;;
23252;SDS011;11795;47.054;15.408;2023-07-24T09:38:02;10.3;;;8.1;;
23252;SDS011;11795;47.054;15.408;2023-07-24T09:40:03;11.1;;;7.8;;
23252;SDS011;11795;47.054;15.408;2023-07-24T09:42:03;11.1;;;7.8;;
23252;SDS011;11795;47.054;15.408;2023-07-24T09:44:00;9.0;;;8.1;;
23252;SDS011;11795;47.054;15.408;2023-07-24T09:46:00;9.0;;;8.1;;
23252;SDS011;11795;47.054;15.408;2023-07-24T09:48:00;9.0;;;8.1;;
23252;SDS011;11795;47.054;15.408;2023-07-24T09:50:02;10.4;;;8.2;;
23252;SDS011;11795;47.054;15.408;2023-07-24T09:52:00;10.4;;;8.2;;
23252;SDS011;11795;47.054;15.408;2023-07-24T09:54:01;9.9;;;8.2;;
23252;SDS011;11795;47.054;15.408;2023-07-24T09:56:01;9.9;;;8.2;;
23252;SDS011;11795;47.054;15.408;2023-07-24T09:58:00;9.9;;;8.2;;
23252;SDS011;11795;47.054;15.408;2023-07-24T10:00:00;9.8;;;7.9;;
23252;SDS011;11795;47.054;15.408;2023-07-24T10:02:00;9.8;;;7.9;;
23252;SDS011;11795;47.054;15.408;2023-07-24T10:04:01;8.9;;;7.7;;
23252;SDS011;11795;47.054;15.408;2023-07-24T10:06:00;8.9;;;7.7;;
23252;SDS011;11795;47.054;15.408;2023-07-24T10:08:00;8.9;;;7.7;;
23252;SDS011;11795;47.054;15.408;2023-07-24T10:10:00;11.4;;;8.1;;
23252;SDS011;11795;47.054;15.408;2023-07-24T10:12:00;11.4;;;8.1;;
23252;SDS011;11795;47.054;15.408;2023-07-24T10:14:00;11.4;;;8.1;;
23252;SDS011;11795;47.054;15.408;2023-07-24T10:16:03;10.3;;;8.5;;
23252;SDS011;11795;47.054;15.408;2023-07-24T10:18:01;10.3;;;8.5;;
23252;SDS011;11795;47.054;15.408;2023-07-24T10:20:02;11.2;;;8.2;;
23252;SDS011;11795;47.054;15.408;2023-07-24T10:22:00;11.2;;;8.2;;
23252;SDS011;11795;47.054;15.408;2023-07-24T10:24:00;11.2;;;8.2;;
23252;SDS011;11795;47.054;15.408;2023-07-24T10:26:02;10.2;;;8.3;;
23252;SDS011;11795;47.054;15.408;2023-07-24T10:28:01;10.2;;;8.3;;
23252;SDS011;11795;47.054;15.408;2023-07-24T10:30:00;10.6;;;8.6;;
23252;SDS011;11795;47.054;15.408;2023-07-24T10:32:00;10.6;;;8.6;;
23252;SDS011;11795;47.054;15.408;2023-07-24T10:34:03;10.6;;;8.6;;
23252;SDS011;11795;47.054;15.408;2023-07-24T10:36:04;10.6;;;8.7;;
23252;SDS011;11795;47.054;15.408;2023-07-24T10:38:01;10.6;;;8.7;;
23252;SDS011;11795;47.054;15.408;2023-07-24T10:40:00;10.9;;;8.5;;
23252;SDS011;11795;47.054;15.408;2023-07-24T10:42:04;10.9;;;8.5;;
23252;SDS011;11795;47.054;15.408;2023-07-24T10:44:00;10.9;;;8.5;;
23252;SDS011;11795;47.054;15.408;2023-07-24T10:46:00;10.4;;;8.9;;
23252;SDS011;11795;47.054;15.408;2023-07-24T10:48:00;10.4;;;8.9;;
23252;SDS011;11795;47.054;15.408;2023-07-24T10:50:01;11.6;;;9.4;;
23252;SDS011;11795;47.054;15.408;2023-07-24T10:52:00;11.6;;;9.4;;
23252;SDS011;11795;47.054;15.408;2023-07-24T10:54:01;11.6;;;9.4;;
23252;SDS011;11795;47.054;15.408;2023-07-24T10:56:00;12.0;;;9.5;;
23252;SDS011;11795;47.054;15.408;2023-07-24T10:58:00;12.0;;;9.5;;
23252;SDS011;11795;47.054;15.408;2023-07-24T11:00:00;11.9;;;10.1;;
23252;SDS011;11795;47.054;15.408;2023-07-24T11:02:03;11.9;;;10.1;;
23252;SDS011;11795;47.054;15.408;2023-07-24T11:04:00;11.9;;;10.1;;
23252;SDS011;11795;47.054;15.408;2023-07-24T11:06:00;11.3;;;10.1;;
23252;SDS011;11795;47.054;15.408;2023-07-24T11:08:00;11.3;;;10.1;;
23252;SDS011;11795;47.054;15.408;2023-07-24T11:10:00;11.4;;;10.0;;
23252;SDS011;11795;47.054;15.408;2023-07-24T11:12:08;11.4;;;10.0;;
23252;SDS011;11795;47.054;15.408;2023-07-24T11:14:02;11.4;;;10.0;;
23252;SDS011;11795;47.054;15.408;2023-07-24T11:16:03;12.0;;;10.1;;
23252;SDS011;11795;47.054;15.408;2023-07-24T11:18:02;12.0;;;10.1;;
23252;SDS011;11795;47.054;15.408;2023-07-24T11:20:05;11.4;;;9.9;;
23252;SDS011;11795;47.054;15.408;2023-07-24T11:22:03;11.4;;;9.9;;
23252;SDS011;11795;47.054;15.408;2023-07-24T11:24:00;11.4;;;9.9;;
23252;SDS011;11795;47.054;15.408;2023-07-24T11:26:01;11.1;;;9.9;;
23252;SDS011;11795;47.054;15.408;2023-07-24T11:28:00;11.1;;;9.9;;
23252;SDS011;11795;47.054;15.408;2023-07-24T11:30:00;13.3;;;10.4;;
23252;SDS011;11795;47.054;15.408;2023-07-24T11:32:00;13.3;;;10.4;;
23252;SDS011;11795;47.054;15.408;2023-07-24T11:34:00;13.3;;;10.4;;
23252;SDS011;11795;47.054;15.408;2023-07-24T11:36:00;11.2;;;10.0;;
23252;SDS011;11795;47.054;15.408;2023-07-24T11:38:00;11.2;;;10.0;;
23252;SDS011;11795;47.054;15.408;2023-07-24T11:40:05;12.2;;;10.0;;
23252;SDS011;11795;47.054;15.408;2023-07-24T11:42:00;12.2;;;10.0;;
23252;SDS011;11795;47.054;15.408;2023-07-24T11:44:00;12.2;;;10.0;;
23252;SDS011;11795;47.054;15.408;2023-07-24T11:46:00;12.5;;;10.2;;
23252;SDS011;11795;47.054;15.408;2023-07-24T11:48:00;12.5;;;10.2;;
23252;SDS011;11795;47.054;15.408;2023-07-24T11:50:01;11.8;;;10.1;;
23252;SDS011;11795;47.054;15.408;2023-07-24T11:52:01;11.8;;;10.1;;
23252;SDS011;11795;47.054;15.408;2023-07-24T11:54:04;11.8;;;10.1;;
23252;SDS011;11795;47.054;15.408;2023-07-24T11:56:01;12.1;;;10.5;;
23252;SDS011;11795;47.054;15.408;2023-07-24T11:58:00;12.1;;;10.5;;
23252;SDS011;11795;47.054;15.408;2023-07-24T12:00:00;13.3;;;11.2;;
23252;SDS011;11795;47.054;15.408;2023-07-24T12:02:00;13.3;;;11.2;;
23252;SDS011;11795;47.054;15.408;2023-07-24T12:04:00;13.3;;;11.2;;
23252;SDS011;11795;47.054;15.408;2023-07-24T12:06:00;13.1;;;10.2;;
23252;SDS011;11795;47.054;15.408;2023-07-24T12:08:00;13.1;;;10.2;;
23252;SDS011;11795;47.054;15.408;2023-07-24T12:10:00;12.6;;;10.9;;